sensor_id;sensor_type;location;lat;lon;timestamp;temperature;humidity
6333;DHT22;3199;49.102;8.856;2024-02-23T00:01:15;7.50;99.90
6333;DHT22;3199;49.102;8.856;2024-02-23T00:03:40;7.50;99.90
6333;DHT22;3199;49.102;8.856;2024-02-23T00:06:06;7.50;99.90
6333;DHT22;3199;49.102;8.856;2024-02-23T00:08:31;7.50;99.90
6333;DHT22;3199;49.102;8.856;2024-02-23T00:10:57;7.50;99.90
6333;DHT22;3199;49.102;8.856;2024-02-23T00:13:23;7.40;99.90
6333;DHT22;3199;49.102;8.856;2024-02-23T00:15:48;7.40;99.90
6333;DHT22;3199;49.102;8.856;2024-02-23T00:18:14;7.40;99.90
6333;DHT22;3199;49.102;8.856;2024-02-23T00:20:41;7.40;99.90
6333;DHT22;3199;49.102;8.856;2024-02-23T00:23:06;7.40;99.90
6333;DHT22;3199;49.102;8.856;2024-02-23T00:25:32;7.40;99.90
6333;DHT22;3199;49.102;8.856;2024-02-23T00:27:57;7.30;99.90
6333;DHT22;3199;49.102;8.856;2024-02-23T00:30:23;7.30;99.90
6333;DHT22;3199;49.102;8.856;2024-02-23T00:32:48;7.30;99.90
6333;DHT22;3199;49.102;8.856;2024-02-23T00:35:14;7.30;99.90
6333;DHT22;3199;49.102;8.856;2024-02-23T00:37:40;7.30;99.90
6333;DHT22;3199;49.102;8.856;2024-02-23T00:40:06;7.30;99.90
6333;DHT22;3199;49.102;8.856;2024-02-23T00:42:32;7.20;99.90
6333;DHT22;3199;49.102;8.856;2024-02-23T00:44:57;7.20;99.90
6333;DHT22;3199;49.102;8.856;2024-02-23T00:47:23;7.20;99.90
6333;DHT22;3199;49.102;8.856;2024-02-23T00:49:49;7.20;99.90
6333;DHT22;3199;49.102;8.856;2024-02-23T00:52:15;7.20;99.90
6333;DHT22;3199;49.102;8.856;2024-02-23T00:54:40;7.20;99.90
6333;DHT22;3199;49.102;8.856;2024-02-23T00:57:06;7.20;99.90
6333;DHT22;3199;49.102;8.856;2024-02-23T00:59:32;7.20;99.90
6333;DHT22;3199;49.102;8.856;2024-02-23T01:01:57;7.20;99.90
6333;DHT22;3199;49.102;8.856;2024-02-23T01:04:23;7.20;99.90
6333;DHT22;3199;49.102;8.856;2024-02-23T01:06:48;7.20;99.90
6333;DHT22;3199;49.102;8.856;2024-02-23T01:09:14;7.20;99.90
6333;DHT22;3199;49.102;8.856;2024-02-23T01:11:42;7.20;99.90
6333;DHT22;3199;49.102;8.856;2024-02-23T01:14:07;7.10;99.90
6333;DHT22;3199;49.102;8.856;2024-02-23T01:16:33;7.10;99.90
6333;DHT22;3199;49.102;8.856;2024-02-23T01:18:58;7.00;99.90
6333;DHT22;3199;49.102;8.856;2024-02-23T01:21:24;7.00;99.90
6333;DHT22;3199;49.102;8.856;2024-02-23T01:23:49;7.00;99.90
6333;DHT22;3199;49.102;8.856;2024-02-23T01:26:15;7.00;99.90
6333;DHT22;3199;49.102;8.856;2024-02-23T01:28:40;7.00;99.90
6333;DHT22;3199;49.102;8.856;2024-02-23T01:31:09;7.00;99.90
6333;DHT22;3199;49.102;8.856;2024-02-23T01:33:36;6.90;99.90
6333;DHT22;3199;49.102;8.856;2024-02-23T01:36:04;6.90;99.90
6333;DHT22;3199;49.102;8.856;2024-02-23T01:38:30;6.90;99.90
6333;DHT22;3199;49.102;8.856;2024-02-23T01:40:58;6.90;99.90
6333;DHT22;3199;49.102;8.856;2024-02-23T01:43:23;6.90;99.90
6333;DHT22;3199;49.102;8.856;2024-02-23T01:45:49;6.90;99.90
6333;DHT22;3199;49.102;8.856;2024-02-23T01:48:15;6.90;99.90
6333;DHT22;3199;49.102;8.856;2024-02-23T01:50:42;6.90;99.90
6333;DHT22;3199;49.102;8.856;2024-02-23T01:53:10;6.90;99.90
6333;DHT22;3199;49.102;8.856;2024-02-23T01:55:36;6.90;99.90
6333;DHT22;3199;49.102;8.856;2024-02-23T01:58:04;6.90;99.90
6333;DHT22;3199;49.102;8.856;2024-02-23T02:00:30;6.80;99.90
6333;DHT22;3199;49.102;8.856;2024-02-23T02:02:56;6.80;99.90
6333;DHT22;3199;49.102;8.856;2024-02-23T02:05:22;6.80;99.90
6333;DHT22;3199;49.102;8.856;2024-02-23T02:07:50;6.80;99.90
6333;DHT22;3199;49.102;8.856;2024-02-23T02:10:20;6.80;99.90
6333;DHT22;3199;49.102;8.856;2024-02-23T02:12:46;6.80;99.90
6333;DHT22;3199;49.102;8.856;2024-02-23T02:15:11;6.70;99.90
6333;DHT22;3199;49.102;8.856;2024-02-23T02:17:37;6.70;99.90
6333;DHT22;3199;49.102;8.856;2024-02-23T02:20:03;6.70;99.90
6333;DHT22;3199;49.102;8.856;2024-02-23T02:22:34;6.80;99.90
6333;DHT22;3199;49.102;8.856;2024-02-23T02:25:00;6.70;99.90
6333;DHT22;3199;49.102;8.856;2024-02-23T02:27:25;6.70;99.90
6333;DHT22;3199;49.102;8.856;2024-02-23T02:29:51;6.70;99.90
6333;DHT22;3199;49.102;8.856;2024-02-23T02:32:17;6.70;99.90
6333;DHT22;3199;49.102;8.856;2024-02-23T02:34:42;6.70;99.90
6333;DHT22;3199;49.102;8.856;2024-02-23T02:37:08;6.70;99.90
6333;DHT22;3199;49.102;8.856;2024-02-23T02:39:34;6.70;99.90
6333;DHT22;3199;49.102;8.856;2024-02-23T02:41:59;6.70;99.90
6333;DHT22;3199;49.102;8.856;2024-02-23T02:44:25;6.70;99.90
6333;DHT22;3199;49.102;8.856;2024-02-23T02:46:55;6.70;99.90
6333;DHT22;3199;49.102;8.856;2024-02-23T02:49:21;6.70;99.90
6333;DHT22;3199;49.102;8.856;2024-02-23T02:51:46;6.70;99.90
6333;DHT22;3199;49.102;8.856;2024-02-23T02:54:12;6.70;99.90
6333;DHT22;3199;49.102;8.856;2024-02-23T02:56:42;6.80;99.90
6333;DHT22;3199;49.102;8.856;2024-02-23T02:59:08;6.80;99.90
6333;DHT22;3199;49.102;8.856;2024-02-23T03:01:33;6.70;99.90
6333;DHT22;3199;49.102;8.856;2024-02-23T03:03:59;6.70;99.90
6333;DHT22;3199;49.102;8.856;2024-02-23T03:06:24;6.70;99.90
6333;DHT22;3199;49.102;8.856;2024-02-23T03:08:50;6.70;99.90
6333;DHT22;3199;49.102;8.856;2024-02-23T03:11:15;6.70;99.90
6333;DHT22;3199;49.102;8.856;2024-02-23T03:13:41;6.70;99.90
6333;DHT22;3199;49.102;8.856;2024-02-23T03:16:06;6.70;99.90
6333;DHT22;3199;49.102;8.856;2024-02-23T03:18:39;6.70;99.90
6333;DHT22;3199;49.102;8.856;2024-02-23T03:21:04;6.70;99.90
6333;DHT22;3199;49.102;8.856;2024-02-23T03:23:30;6.60;99.90
6333;DHT22;3199;49.102;8.856;2024-02-23T03:25:56;6.60;99.90
6333;DHT22;3199;49.102;8.856;2024-02-23T03:28:21;6.60;99.90
6333;DHT22;3199;49.102;8.856;2024-02-23T03:30:47;6.60;99.90
6333;DHT22;3199;49.102;8.856;2024-02-23T03:33:12;6.60;99.90
6333;DHT22;3199;49.102;8.856;2024-02-23T03:35:38;6.60;99.90
6333;DHT22;3199;49.102;8.856;2024-02-23T03:38:03;6.60;99.90
6333;DHT22;3199;49.102;8.856;2024-02-23T03:40:29;6.60;99.90
6333;DHT22;3199;49.102;8.856;2024-02-23T03:42:54;6.60;99.90
6333;DHT22;3199;49.102;8.856;2024-02-23T03:45:20;6.60;99.90
6333;DHT22;3199;49.102;8.856;2024-02-23T03:47:45;6.60;99.90
6333;DHT22;3199;49.102;8.856;2024-02-23T03:50:11;6.60;99.90
6333;DHT22;3199;49.102;8.856;2024-02-23T03:52:37;6.60;99.90
6333;DHT22;3199;49.102;8.856;2024-02-23T03:55:02;6.50;99.90
6333;DHT22;3199;49.102;8.856;2024-02-23T03:57:29;6.50;99.90
6333;DHT22;3199;49.102;8.856;2024-02-23T03:59:55;6.50;99.90
6333;DHT22;3199;49.102;8.856;2024-02-23T04:02:21;6.40;99.90
6333;DHT22;3199;49.102;8.856;2024-02-23T04:04:48;6.40;99.90
6333;DHT22;3199;49.102;8.856;2024-02-23T04:07:13;6.40;99.90
6333;DHT22;3199;49.102;8.856;2024-02-23T04:09:39;6.40;99.90
6333;DHT22;3199;49.102;8.856;2024-02-23T04:12:04;6.40;99.90
6333;DHT22;3199;49.102;8.856;2024-02-23T04:14:32;6.40;99.90
6333;DHT22;3199;49.102;8.856;2024-02-23T04:17:04;6.40;99.90
6333;DHT22;3199;49.102;8.856;2024-02-23T04:19:30;6.40;99.90
6333;DHT22;3199;49.102;8.856;2024-02-23T04:21:55;6.40;99.90
6333;DHT22;3199;49.102;8.856;2024-02-23T04:24:21;6.40;99.90
6333;DHT22;3199;49.102;8.856;2024-02-23T04:26:46;6.40;99.90
6333;DHT22;3199;49.102;8.856;2024-02-23T04:29:12;6.40;99.90
6333;DHT22;3199;49.102;8.856;2024-02-23T04:31:38;6.40;99.90
6333;DHT22;3199;49.102;8.856;2024-02-23T04:34:03;6.40;99.90
6333;DHT22;3199;49.102;8.856;2024-02-23T04:36:29;6.40;99.90
6333;DHT22;3199;49.102;8.856;2024-02-23T04:38:54;6.30;99.90
6333;DHT22;3199;49.102;8.856;2024-02-23T04:41:20;6.30;99.90
6333;DHT22;3199;49.102;8.856;2024-02-23T04:43:49;6.30;99.90
6333;DHT22;3199;49.102;8.856;2024-02-23T04:46:15;6.30;99.90
6333;DHT22;3199;49.102;8.856;2024-02-23T04:48:40;6.30;99.90
6333;DHT22;3199;49.102;8.856;2024-02-23T04:51:07;6.30;99.90
6333;DHT22;3199;49.102;8.856;2024-02-23T04:53:38;6.20;99.90
6333;DHT22;3199;49.102;8.856;2024-02-23T04:56:04;6.20;99.90
6333;DHT22;3199;49.102;8.856;2024-02-23T04:58:30;6.20;99.90
6333;DHT22;3199;49.102;8.856;2024-02-23T05:00:56;6.20;99.90
6333;DHT22;3199;49.102;8.856;2024-02-23T05:03:21;6.20;99.90
6333;DHT22;3199;49.102;8.856;2024-02-23T05:05:47;6.20;99.90
6333;DHT22;3199;49.102;8.856;2024-02-23T05:08:13;6.10;99.90
6333;DHT22;3199;49.102;8.856;2024-02-23T05:10:39;6.10;99.90
6333;DHT22;3199;49.102;8.856;2024-02-23T05:13:04;6.10;99.90
6333;DHT22;3199;49.102;8.856;2024-02-23T05:15:30;6.00;99.90
6333;DHT22;3199;49.102;8.856;2024-02-23T05:17:55;6.00;99.90
6333;DHT22;3199;49.102;8.856;2024-02-23T05:20:21;6.00;99.90
6333;DHT22;3199;49.102;8.856;2024-02-23T05:22:47;5.90;99.90
6333;DHT22;3199;49.102;8.856;2024-02-23T05:25:13;5.90;99.90
6333;DHT22;3199;49.102;8.856;2024-02-23T05:27:39;5.90;99.90
6333;DHT22;3199;49.102;8.856;2024-02-23T05:30:05;5.80;99.90
6333;DHT22;3199;49.102;8.856;2024-02-23T05:32:31;5.80;99.90
6333;DHT22;3199;49.102;8.856;2024-02-23T05:34:57;5.80;99.90
6333;DHT22;3199;49.102;8.856;2024-02-23T05:37:22;5.80;99.90
6333;DHT22;3199;49.102;8.856;2024-02-23T05:39:49;5.80;99.90
6333;DHT22;3199;49.102;8.856;2024-02-23T05:42:14;5.80;99.90
6333;DHT22;3199;49.102;8.856;2024-02-23T05:44:43;5.80;99.90
6333;DHT22;3199;49.102;8.856;2024-02-23T05:47:09;5.80;99.90
6333;DHT22;3199;49.102;8.856;2024-02-23T05:49:35;5.80;99.90
6333;DHT22;3199;49.102;8.856;2024-02-23T05:52:01;5.80;99.90
6333;DHT22;3199;49.102;8.856;2024-02-23T05:54:26;5.80;99.90
6333;DHT22;3199;49.102;8.856;2024-02-23T05:56:52;5.80;99.90
6333;DHT22;3199;49.102;8.856;2024-02-23T05:59:17;5.70;99.90
6333;DHT22;3199;49.102;8.856;2024-02-23T06:01:43;5.70;99.90
6333;DHT22;3199;49.102;8.856;2024-02-23T06:04:09;5.60;99.90
6333;DHT22;3199;49.102;8.856;2024-02-23T06:06:34;5.60;99.90
6333;DHT22;3199;49.102;8.856;2024-02-23T06:09:00;5.60;99.90
6333;DHT22;3199;49.102;8.856;2024-02-23T06:11:26;5.60;99.90
6333;DHT22;3199;49.102;8.856;2024-02-23T06:13:51;5.60;99.90
6333;DHT22;3199;49.102;8.856;2024-02-23T06:16:17;5.50;99.90
6333;DHT22;3199;49.102;8.856;2024-02-23T06:18:42;5.50;99.90
6333;DHT22;3199;49.102;8.856;2024-02-23T06:21:15;5.50;99.90
6333;DHT22;3199;49.102;8.856;2024-02-23T06:23:41;5.50;99.90
6333;DHT22;3199;49.102;8.856;2024-02-23T06:26:07;5.50;99.90
6333;DHT22;3199;49.102;8.856;2024-02-23T06:28:33;5.50;99.90
6333;DHT22;3199;49.102;8.856;2024-02-23T06:30:58;5.50;99.90
6333;DHT22;3199;49.102;8.856;2024-02-23T06:33:24;5.50;99.90
6333;DHT22;3199;49.102;8.856;2024-02-23T06:35:50;5.50;99.90
6333;DHT22;3199;49.102;8.856;2024-02-23T06:38:16;5.50;99.90
6333;DHT22;3199;49.102;8.856;2024-02-23T06:40:41;5.50;99.90
6333;DHT22;3199;49.102;8.856;2024-02-23T06:43:07;5.50;99.90
6333;DHT22;3199;49.102;8.856;2024-02-23T06:45:32;5.50;99.90
6333;DHT22;3199;49.102;8.856;2024-02-23T06:47:58;5.50;99.90
6333;DHT22;3199;49.102;8.856;2024-02-23T06:50:23;5.40;99.90
6333;DHT22;3199;49.102;8.856;2024-02-23T06:52:49;5.40;99.90
6333;DHT22;3199;49.102;8.856;2024-02-23T06:55:15;5.40;99.90
6333;DHT22;3199;49.102;8.856;2024-02-23T06:57:41;5.40;99.90
6333;DHT22;3199;49.102;8.856;2024-02-23T07:00:07;5.40;99.90
6333;DHT22;3199;49.102;8.856;2024-02-23T07:02:34;5.40;99.90
6333;DHT22;3199;49.102;8.856;2024-02-23T07:05:02;5.40;99.90
6333;DHT22;3199;49.102;8.856;2024-02-23T07:07:32;5.40;99.90
6333;DHT22;3199;49.102;8.856;2024-02-23T07:09:59;5.40;99.90
6333;DHT22;3199;49.102;8.856;2024-02-23T07:12:25;5.50;99.90
6333;DHT22;3199;49.102;8.856;2024-02-23T07:14:53;5.50;99.90
6333;DHT22;3199;49.102;8.856;2024-02-23T07:17:18;5.50;99.90
6333;DHT22;3199;49.102;8.856;2024-02-23T07:19:44;5.50;99.90
6333;DHT22;3199;49.102;8.856;2024-02-23T07:22:10;5.60;99.90
6333;DHT22;3199;49.102;8.856;2024-02-23T07:24:41;5.60;99.90
6333;DHT22;3199;49.102;8.856;2024-02-23T07:27:06;5.60;99.90
6333;DHT22;3199;49.102;8.856;2024-02-23T07:29:32;5.60;99.90
6333;DHT22;3199;49.102;8.856;2024-02-23T07:31:57;5.60;99.90
6333;DHT22;3199;49.102;8.856;2024-02-23T07:34:23;5.70;99.90
6333;DHT22;3199;49.102;8.856;2024-02-23T07:36:51;5.80;99.90
6333;DHT22;3199;49.102;8.856;2024-02-23T07:39:17;5.90;99.90
6333;DHT22;3199;49.102;8.856;2024-02-23T07:41:43;5.90;99.90
6333;DHT22;3199;49.102;8.856;2024-02-23T07:44:08;5.90;99.90
6333;DHT22;3199;49.102;8.856;2024-02-23T07:46:34;5.90;99.90
6333;DHT22;3199;49.102;8.856;2024-02-23T07:48:59;6.00;99.90
6333;DHT22;3199;49.102;8.856;2024-02-23T07:51:25;6.00;99.90
6333;DHT22;3199;49.102;8.856;2024-02-23T07:53:51;6.20;99.90
6333;DHT22;3199;49.102;8.856;2024-02-23T07:56:16;6.40;99.90
6333;DHT22;3199;49.102;8.856;2024-02-23T07:58:42;6.60;99.90
6333;DHT22;3199;49.102;8.856;2024-02-23T08:01:08;6.90;99.90
6333;DHT22;3199;49.102;8.856;2024-02-23T08:03:33;7.30;99.90
6333;DHT22;3199;49.102;8.856;2024-02-23T08:05:59;7.70;99.90
6333;DHT22;3199;49.102;8.856;2024-02-23T08:08:25;8.20;99.90
6333;DHT22;3199;49.102;8.856;2024-02-23T08:10:52;8.70;99.10
6333;DHT22;3199;49.102;8.856;2024-02-23T08:13:17;9.20;97.60
6333;DHT22;3199;49.102;8.856;2024-02-23T08:15:43;9.40;96.30
6333;DHT22;3199;49.102;8.856;2024-02-23T08:18:09;9.80;96.30
6333;DHT22;3199;49.102;8.856;2024-02-23T08:20:35;10.00;94.60
6333;DHT22;3199;49.102;8.856;2024-02-23T08:23:01;10.10;93.90
6333;DHT22;3199;49.102;8.856;2024-02-23T08:25:27;10.20;94.00
6333;DHT22;3199;49.102;8.856;2024-02-23T08:27:55;10.30;93.20
6333;DHT22;3199;49.102;8.856;2024-02-23T08:30:21;10.50;93.40
6333;DHT22;3199;49.102;8.856;2024-02-23T08:32:47;10.80;91.70
6333;DHT22;3199;49.102;8.856;2024-02-23T08:35:12;10.90;91.80
6333;DHT22;3199;49.102;8.856;2024-02-23T08:37:39;11.00;91.10
6333;DHT22;3199;49.102;8.856;2024-02-23T08:40:05;11.10;90.60
6333;DHT22;3199;49.102;8.856;2024-02-23T08:42:31;11.10;90.40
6333;DHT22;3199;49.102;8.856;2024-02-23T08:44:57;11.20;90.50
6333;DHT22;3199;49.102;8.856;2024-02-23T08:47:22;11.30;90.50
6333;DHT22;3199;49.102;8.856;2024-02-23T08:49:48;11.40;90.70
6333;DHT22;3199;49.102;8.856;2024-02-23T08:52:13;11.50;90.60
6333;DHT22;3199;49.102;8.856;2024-02-23T08:54:39;11.40;89.50
6333;DHT22;3199;49.102;8.856;2024-02-23T08:57:05;11.20;89.00
6333;DHT22;3199;49.102;8.856;2024-02-23T08:59:30;11.20;89.70
6333;DHT22;3199;49.102;8.856;2024-02-23T09:01:56;11.10;89.70
6333;DHT22;3199;49.102;8.856;2024-02-23T09:04:22;10.70;88.20
6333;DHT22;3199;49.102;8.856;2024-02-23T09:06:47;10.90;90.40
6333;DHT22;3199;49.102;8.856;2024-02-23T09:09:15;10.90;90.20
6333;DHT22;3199;49.102;8.856;2024-02-23T09:11:41;11.00;89.50
6333;DHT22;3199;49.102;8.856;2024-02-23T09:14:06;11.20;90.50
6333;DHT22;3199;49.102;8.856;2024-02-23T09:16:32;11.40;89.60
6333;DHT22;3199;49.102;8.856;2024-02-23T09:18:57;11.60;88.40
6333;DHT22;3199;49.102;8.856;2024-02-23T09:21:22;11.80;88.60
6333;DHT22;3199;49.102;8.856;2024-02-23T09:23:49;11.80;88.40
6333;DHT22;3199;49.102;8.856;2024-02-23T09:26:14;11.70;86.50
6333;DHT22;3199;49.102;8.856;2024-02-23T09:28:40;11.60;87.30
6333;DHT22;3199;49.102;8.856;2024-02-23T09:31:07;11.40;87.50
6333;DHT22;3199;49.102;8.856;2024-02-23T09:33:33;10.90;85.80
6333;DHT22;3199;49.102;8.856;2024-02-23T09:35:58;10.60;87.30
6333;DHT22;3199;49.102;8.856;2024-02-23T09:38:25;10.30;87.30
6333;DHT22;3199;49.102;8.856;2024-02-23T09:40:51;10.10;87.80
6333;DHT22;3199;49.102;8.856;2024-02-23T09:43:17;10.10;89.10
6333;DHT22;3199;49.102;8.856;2024-02-23T09:45:43;10.00;88.90
6333;DHT22;3199;49.102;8.856;2024-02-23T09:48:10;9.80;90.10
6333;DHT22;3199;49.102;8.856;2024-02-23T09:50:37;9.60;90.30
6333;DHT22;3199;49.102;8.856;2024-02-23T09:53:04;9.70;91.30
6333;DHT22;3199;49.102;8.856;2024-02-23T09:55:34;9.60;91.30
6333;DHT22;3199;49.102;8.856;2024-02-23T09:57:59;9.50;91.20
6333;DHT22;3199;49.102;8.856;2024-02-23T10:00:25;9.50;91.50
6333;DHT22;3199;49.102;8.856;2024-02-23T10:02:53;9.60;91.50
6333;DHT22;3199;49.102;8.856;2024-02-23T10:05:23;9.40;91.10
6333;DHT22;3199;49.102;8.856;2024-02-23T10:07:48;9.50;91.40
6333;DHT22;3199;49.102;8.856;2024-02-23T10:10:14;9.60;91.60
6333;DHT22;3199;49.102;8.856;2024-02-23T10:12:40;9.60;91.50
6333;DHT22;3199;49.102;8.856;2024-02-23T10:15:06;9.60;91.00
6333;DHT22;3199;49.102;8.856;2024-02-23T10:17:32;9.70;90.80
6333;DHT22;3199;49.102;8.856;2024-02-23T10:19:59;9.80;90.70
6333;DHT22;3199;49.102;8.856;2024-02-23T10:22:24;10.00;90.20
6333;DHT22;3199;49.102;8.856;2024-02-23T10:24:55;10.10;89.40
6333;DHT22;3199;49.102;8.856;2024-02-23T10:27:21;10.00;88.90
6333;DHT22;3199;49.102;8.856;2024-02-23T10:29:50;9.90;90.00
6333;DHT22;3199;49.102;8.856;2024-02-23T10:32:15;9.90;89.10
6333;DHT22;3199;49.102;8.856;2024-02-23T10:34:43;9.90;90.40
6333;DHT22;3199;49.102;8.856;2024-02-23T10:37:09;10.10;90.30
6333;DHT22;3199;49.102;8.856;2024-02-23T10:39:38;10.10;88.60
6333;DHT22;3199;49.102;8.856;2024-02-23T10:42:05;10.10;88.70
6333;DHT22;3199;49.102;8.856;2024-02-23T10:44:34;10.10;89.00
6333;DHT22;3199;49.102;8.856;2024-02-23T10:47:01;10.10;87.80
6333;DHT22;3199;49.102;8.856;2024-02-23T10:49:28;10.10;88.20
6333;DHT22;3199;49.102;8.856;2024-02-23T10:51:54;10.20;87.80
6333;DHT22;3199;49.102;8.856;2024-02-23T10:54:20;10.20;87.40
6333;DHT22;3199;49.102;8.856;2024-02-23T10:56:48;10.50;87.80
6333;DHT22;3199;49.102;8.856;2024-02-23T10:59:14;10.80;86.10
6333;DHT22;3199;49.102;8.856;2024-02-23T11:01:46;10.90;84.50
6333;DHT22;3199;49.102;8.856;2024-02-23T11:04:15;11.10;85.80
6333;DHT22;3199;49.102;8.856;2024-02-23T11:06:41;11.10;84.30
6333;DHT22;3199;49.102;8.856;2024-02-23T11:09:08;11.10;85.30
6333;DHT22;3199;49.102;8.856;2024-02-23T11:11:34;11.10;84.90
6333;DHT22;3199;49.102;8.856;2024-02-23T11:14:03;11.10;85.60
6333;DHT22;3199;49.102;8.856;2024-02-23T11:16:32;11.00;84.20
6333;DHT22;3199;49.102;8.856;2024-02-23T11:19:04;11.00;84.70
6333;DHT22;3199;49.102;8.856;2024-02-23T11:21:34;10.80;85.30
6333;DHT22;3199;49.102;8.856;2024-02-23T11:24:03;10.60;84.20
6333;DHT22;3199;49.102;8.856;2024-02-23T11:26:29;10.50;84.80
6333;DHT22;3199;49.102;8.856;2024-02-23T11:28:54;10.30;86.10
6333;DHT22;3199;49.102;8.856;2024-02-23T11:31:24;10.20;87.00
6333;DHT22;3199;49.102;8.856;2024-02-23T11:33:51;10.10;86.30
6333;DHT22;3199;49.102;8.856;2024-02-23T11:36:29;10.00;86.40
6333;DHT22;3199;49.102;8.856;2024-02-23T11:38:57;9.90;85.70
6333;DHT22;3199;49.102;8.856;2024-02-23T11:41:24;9.80;86.70
6333;DHT22;3199;49.102;8.856;2024-02-23T11:43:51;9.80;88.40
6333;DHT22;3199;49.102;8.856;2024-02-23T11:46:17;9.70;88.20
6333;DHT22;3199;49.102;8.856;2024-02-23T11:48:44;9.70;88.70
6333;DHT22;3199;49.102;8.856;2024-02-23T11:51:15;9.60;89.50
6333;DHT22;3199;49.102;8.856;2024-02-23T11:53:42;9.70;89.60
6333;DHT22;3199;49.102;8.856;2024-02-23T11:56:07;9.60;90.10
6333;DHT22;3199;49.102;8.856;2024-02-23T11:58:33;9.60;90.20
6333;DHT22;3199;49.102;8.856;2024-02-23T12:01:00;9.60;90.60
6333;DHT22;3199;49.102;8.856;2024-02-23T12:03:31;9.70;90.90
6333;DHT22;3199;49.102;8.856;2024-02-23T12:05:57;9.70;90.30
6333;DHT22;3199;49.102;8.856;2024-02-23T12:08:28;9.70;90.00
6333;DHT22;3199;49.102;8.856;2024-02-23T12:10:55;9.70;90.30
6333;DHT22;3199;49.102;8.856;2024-02-23T12:13:21;9.70;90.80
6333;DHT22;3199;49.102;8.856;2024-02-23T12:15:53;9.80;91.90
6333;DHT22;3199;49.102;8.856;2024-02-23T12:18:21;9.80;90.70
6333;DHT22;3199;49.102;8.856;2024-02-23T12:20:49;9.80;91.50
6333;DHT22;3199;49.102;8.856;2024-02-23T12:23:15;9.80;92.10
6333;DHT22;3199;49.102;8.856;2024-02-23T12:25:40;9.80;92.50
6333;DHT22;3199;49.102;8.856;2024-02-23T12:28:06;9.80;93.50
6333;DHT22;3199;49.102;8.856;2024-02-23T12:30:31;9.80;92.80
6333;DHT22;3199;49.102;8.856;2024-02-23T12:33:07;9.80;93.20
6333;DHT22;3199;49.102;8.856;2024-02-23T12:35:34;9.80;93.30
6333;DHT22;3199;49.102;8.856;2024-02-23T12:38:00;9.80;93.00
6333;DHT22;3199;49.102;8.856;2024-02-23T12:40:25;9.80;93.20
6333;DHT22;3199;49.102;8.856;2024-02-23T12:42:51;9.80;92.70
6333;DHT22;3199;49.102;8.856;2024-02-23T12:45:17;9.80;92.60
6333;DHT22;3199;49.102;8.856;2024-02-23T12:47:42;9.80;93.00
6333;DHT22;3199;49.102;8.856;2024-02-23T12:50:08;9.90;93.20
6333;DHT22;3199;49.102;8.856;2024-02-23T12:52:34;10.00;92.80
6333;DHT22;3199;49.102;8.856;2024-02-23T12:54:59;9.90;93.00
6333;DHT22;3199;49.102;8.856;2024-02-23T12:57:25;9.90;92.90
6333;DHT22;3199;49.102;8.856;2024-02-23T12:59:51;9.90;93.00
6333;DHT22;3199;49.102;8.856;2024-02-23T13:02:16;9.80;92.80
6333;DHT22;3199;49.102;8.856;2024-02-23T13:04:42;9.70;92.90
6333;DHT22;3199;49.102;8.856;2024-02-23T13:07:14;9.70;93.40
6333;DHT22;3199;49.102;8.856;2024-02-23T13:09:39;9.70;93.40
6333;DHT22;3199;49.102;8.856;2024-02-23T13:12:05;9.60;93.30
6333;DHT22;3199;49.102;8.856;2024-02-23T13:14:31;9.60;93.50
6333;DHT22;3199;49.102;8.856;2024-02-23T13:16:56;9.70;93.80
6333;DHT22;3199;49.102;8.856;2024-02-23T13:19:21;9.70;93.60
6333;DHT22;3199;49.102;8.856;2024-02-23T13:21:47;9.80;93.60
6333;DHT22;3199;49.102;8.856;2024-02-23T13:24:12;9.90;93.20
6333;DHT22;3199;49.102;8.856;2024-02-23T13:26:38;9.80;93.30
6333;DHT22;3199;49.102;8.856;2024-02-23T13:29:03;9.90;93.20
6333;DHT22;3199;49.102;8.856;2024-02-23T13:31:29;9.90;93.50
6333;DHT22;3199;49.102;8.856;2024-02-23T13:33:55;10.00;93.10
6333;DHT22;3199;49.102;8.856;2024-02-23T13:36:20;10.00;93.10
6333;DHT22;3199;49.102;8.856;2024-02-23T13:38:46;10.10;93.10
6333;DHT22;3199;49.102;8.856;2024-02-23T13:41:11;10.10;92.90
6333;DHT22;3199;49.102;8.856;2024-02-23T13:43:37;10.00;92.80
6333;DHT22;3199;49.102;8.856;2024-02-23T13:46:03;10.00;92.60
6333;DHT22;3199;49.102;8.856;2024-02-23T13:48:29;9.90;92.40
6333;DHT22;3199;49.102;8.856;2024-02-23T13:50:55;9.80;92.90
6333;DHT22;3199;49.102;8.856;2024-02-23T13:53:21;9.80;93.20
6333;DHT22;3199;49.102;8.856;2024-02-23T13:55:47;9.90;93.30
6333;DHT22;3199;49.102;8.856;2024-02-23T13:58:13;9.90;93.40
6333;DHT22;3199;49.102;8.856;2024-02-23T14:00:38;9.80;93.40
6333;DHT22;3199;49.102;8.856;2024-02-23T14:03:04;9.70;93.60
6333;DHT22;3199;49.102;8.856;2024-02-23T14:05:30;9.60;93.80
6333;DHT22;3199;49.102;8.856;2024-02-23T14:07:55;9.60;94.00
6333;DHT22;3199;49.102;8.856;2024-02-23T14:10:21;9.60;94.10
6333;DHT22;3199;49.102;8.856;2024-02-23T14:12:46;9.50;93.80
6333;DHT22;3199;49.102;8.856;2024-02-23T14:15:12;9.50;94.10
6333;DHT22;3199;49.102;8.856;2024-02-23T14:17:40;9.60;94.40
6333;DHT22;3199;49.102;8.856;2024-02-23T14:20:06;9.60;94.00
6333;DHT22;3199;49.102;8.856;2024-02-23T14:22:32;9.60;93.90
6333;DHT22;3199;49.102;8.856;2024-02-23T14:24:58;9.50;93.70
6333;DHT22;3199;49.102;8.856;2024-02-23T14:27:24;9.50;93.90
6333;DHT22;3199;49.102;8.856;2024-02-23T14:29:49;9.50;94.10
6333;DHT22;3199;49.102;8.856;2024-02-23T14:32:16;9.60;94.20
6333;DHT22;3199;49.102;8.856;2024-02-23T14:34:42;9.70;93.90
6333;DHT22;3199;49.102;8.856;2024-02-23T14:37:08;9.80;94.00
6333;DHT22;3199;49.102;8.856;2024-02-23T14:39:33;9.80;94.00
6333;DHT22;3199;49.102;8.856;2024-02-23T14:42:00;9.90;94.30
6333;DHT22;3199;49.102;8.856;2024-02-23T14:44:26;9.90;93.80
6333;DHT22;3199;49.102;8.856;2024-02-23T14:46:52;9.90;93.90
6333;DHT22;3199;49.102;8.856;2024-02-23T14:49:17;9.90;93.60
6333;DHT22;3199;49.102;8.856;2024-02-23T14:51:43;9.90;94.00
6333;DHT22;3199;49.102;8.856;2024-02-23T14:54:11;9.90;93.80
6333;DHT22;3199;49.102;8.856;2024-02-23T14:56:37;9.90;93.60
6333;DHT22;3199;49.102;8.856;2024-02-23T14:59:02;9.90;93.30
6333;DHT22;3199;49.102;8.856;2024-02-23T15:01:28;9.90;93.50
6333;DHT22;3199;49.102;8.856;2024-02-23T15:03:53;9.90;93.40
6333;DHT22;3199;49.102;8.856;2024-02-23T15:06:19;9.90;93.40
6333;DHT22;3199;49.102;8.856;2024-02-23T15:08:48;9.90;93.50
6333;DHT22;3199;49.102;8.856;2024-02-23T15:11:13;9.80;93.50
6333;DHT22;3199;49.102;8.856;2024-02-23T15:13:39;9.80;93.50
6333;DHT22;3199;49.102;8.856;2024-02-23T15:16:06;9.80;93.90
6333;DHT22;3199;49.102;8.856;2024-02-23T15:18:31;9.80;94.10
6333;DHT22;3199;49.102;8.856;2024-02-23T15:20:57;9.80;93.90
6333;DHT22;3199;49.102;8.856;2024-02-23T15:23:22;9.80;93.80
6333;DHT22;3199;49.102;8.856;2024-02-23T15:25:49;9.80;93.90
6333;DHT22;3199;49.102;8.856;2024-02-23T15:28:15;9.80;93.70
6333;DHT22;3199;49.102;8.856;2024-02-23T15:30:48;9.80;93.80
6333;DHT22;3199;49.102;8.856;2024-02-23T15:33:14;9.70;94.00
6333;DHT22;3199;49.102;8.856;2024-02-23T15:35:40;9.70;94.10
6333;DHT22;3199;49.102;8.856;2024-02-23T15:38:05;9.60;93.80
6333;DHT22;3199;49.102;8.856;2024-02-23T15:40:31;9.60;94.10
6333;DHT22;3199;49.102;8.856;2024-02-23T15:42:56;9.60;94.10
6333;DHT22;3199;49.102;8.856;2024-02-23T15:45:22;9.60;94.20
6333;DHT22;3199;49.102;8.856;2024-02-23T15:47:48;9.60;94.10
6333;DHT22;3199;49.102;8.856;2024-02-23T15:50:14;9.60;94.10
6333;DHT22;3199;49.102;8.856;2024-02-23T15:52:39;9.50;94.30
6333;DHT22;3199;49.102;8.856;2024-02-23T15:55:06;9.40;94.40
6333;DHT22;3199;49.102;8.856;2024-02-23T15:57:36;9.40;94.70
6333;DHT22;3199;49.102;8.856;2024-02-23T16:00:02;9.40;94.80
6333;DHT22;3199;49.102;8.856;2024-02-23T16:02:29;9.30;94.60
6333;DHT22;3199;49.102;8.856;2024-02-23T16:04:55;9.30;94.80
6333;DHT22;3199;49.102;8.856;2024-02-23T16:07:20;9.20;94.60